Details for United Airlines at KEWR




Go Back


Latest METAR
Local Time

KEWR 250451Z 23008KT 10SM CLR 20/08 A3009 RMK AO2 SLP188 T02000078 402940189

25/05/2018, 01:09:58

Description
Results
United Airlines Logo
Number of Pilots based at KEWR
0 Pilots Based here
Number of United Airlines Flights Departed from KEWR
2 Flights Departed
Number of United Airlines Flights Arrived at KEWR
3 Flights Arrived
Number of United Airlines Schedules Departing from KEWR
740 Schedules
Number of United Airlines Schedules Arriving at KEWR
681 Schedules
Number of United Airlines Schedules Departing from KEWR availible today
437 Schedules Today
Number of United Airlines Schedules Arriving at KEWR availible today
416 Schedules Today
Average Landing Rate at KEWR
-183 fpm
United Airlines Average Landing Rate at KEWR
-158 fpm
Total Fuel Purchased at KEWR by United Airlines
8,740.21 kgs / 19,268.67 lbs

Pilots Based at KEWR


Pilot ID
Pilot Name
Pilot Rank
No. of Flights
No. of Flying Hours
There are no pilots assigned to this hub!   Will you be the first?
Content